OIAI  Shahid Asyaee  Airport

Iran

Add Bookmark
ICAO OIAI
Type Airport
Status Operational
Latitude
32° 0' 8" N
32.002399
Longitude
49° 16' 13" E
49.270401
Local (GMT +4.5 ) UTC
May 28, 2016 12:27 pm May 28, 2016 07:57
Sunrise-Sunset Local UTC
Begin Civil Twilight 05:39 am 01:09
Sunrise 06:07 am 01:37
Sunset 08:13 pm 15:43
End Civil Twilight 08:41 pm 16:11
VFR
VFR
MVFR
MVFR
IFR
IFR
LIFR
LIFR
Unknown
Unavailable

Current Weather

METAR Observed VFR
OIAI 280700Z 15002KT CAVOK 37/03 Q1007 Sat, May 28, 2016 @ 07:00 UTC
(57 Minutes ago)
Visual Flight Rules
Wind Visibility Conditions
150° at 2 knots (4 kph) 10 km or more
  • No significant weather
Temperatures Readings Precipitation
Current Temp
37°C
99°F
Dewpoint
3°C
37°F
Humidity 12%
Altimeter 29.73" Hg
Sea Level Pressure 1,007 mb
Field Elevation
372 m
1,220 ft
None Recorded

Additional weather within a 92.6km radius of OIAI

Map ICAO Location
OIAW 88.2km S/SW (213°)
VFR
VFR
MVFR
MVFR
IFR
IFR
LIFR
LIFR
Unknown
Unavailable
-
-

CheckWX.com is intended as a tool to help pilots better visualize weather data. It is not intended as a substitute for an official weather briefing obtained from a Flight Service Station. CheckWX.com does not meet the FAA requirements for an official pre-flight weather briefing. Therefore, it's important that pilots still call and obtain an official FSS pre-flight weather briefing.

© 2007-2016 CheckWX.com
07:57:35 UTC